createdAt,value
2018-09-11T00:01:12.736Z,6.40
2018-09-11T00:03:43.000Z,6.20
2018-09-11T00:06:13.128Z,6.33
2018-09-11T00:08:43.654Z,5.70
2018-09-11T00:11:13.865Z,6.23
2018-09-11T00:13:44.126Z,6.50
2018-09-11T00:16:14.360Z,6.67
2018-09-11T00:18:44.616Z,6.67
2018-09-11T00:21:14.840Z,6.40
2018-09-11T00:23:45.095Z,6.60
2018-09-11T00:26:15.447Z,11.63
2018-09-11T00:28:45.817Z,8.10
2018-09-11T00:31:16.032Z,12.07
2018-09-11T00:33:46.359Z,10.63
2018-09-11T00:36:16.723Z,10.33
2018-09-11T00:38:46.960Z,7.57
2018-09-11T00:41:17.163Z,8.10
2018-09-11T00:43:47.449Z,6.83
2018-09-11T00:46:17.641Z,6.70
2018-09-11T00:48:47.833Z,6.30
2018-09-11T00:51:18.037Z,6.30
2018-09-11T00:53:48.250Z,6.10
2018-09-11T00:56:18.447Z,6.23
2018-09-11T00:58:48.742Z,6.70
2018-09-11T01:01:18.964Z,6.60
2018-09-11T01:03:48.575Z,5.93
2018-09-11T01:06:18.724Z,6.90
2018-09-11T01:08:48.949Z,5.93
2018-09-11T01:11:19.157Z,6.27
2018-09-11T01:13:49.711Z,6.57
2018-09-11T01:16:19.937Z,6.30
2018-09-11T01:18:50.206Z,6.33
2018-09-11T01:21:20.407Z,6.47
2018-09-11T01:23:50.673Z,6.40
2018-09-11T01:26:20.953Z,6.07
2018-09-11T01:28:51.201Z,6.10
2018-09-11T01:31:21.420Z,6.60
2018-09-11T01:33:51.469Z,6.37
2018-09-11T01:36:21.736Z,6.53
2018-09-11T01:38:52.040Z,5.90
2018-09-11T01:41:22.289Z,6.80
2018-09-11T01:43:52.492Z,6.60
2018-09-11T01:46:22.717Z,6.70
2018-09-11T01:48:52.974Z,7.23
2018-09-11T01:51:23.112Z,7.37
2018-09-11T01:53:53.449Z,8.67
2018-09-11T01:56:23.688Z,8.73
2018-09-11T01:58:54.099Z,7.37
2018-09-11T02:01:24.420Z,7.40
2018-09-11T02:03:54.685Z,7.23
2018-09-11T02:06:24.954Z,6.43
2018-09-11T02:08:55.140Z,7.07
2018-09-11T02:11:25.293Z,7.27
2018-09-11T02:13:55.549Z,7.27
2018-09-11T02:16:25.709Z,8.03
2018-09-11T02:18:55.880Z,7.53
2018-09-11T02:21:26.021Z,7.40
2018-09-11T02:23:56.284Z,7.20
2018-09-11T02:26:26.514Z,7.73
2018-09-11T02:28:56.754Z,7.50
2018-09-11T02:31:26.940Z,7.30
2018-09-11T02:33:57.198Z,8.07
2018-09-11T02:36:27.353Z,7.80
2018-09-11T02:38:57.612Z,7.80
2018-09-11T02:41:27.242Z,7.47
2018-09-11T02:43:57.372Z,7.40
2018-09-11T02:46:27.569Z,7.37
2018-09-11T02:48:57.824Z,7.33
2018-09-11T02:51:28.060Z,6.90
2018-09-11T02:53:58.284Z,7.23
2018-09-11T02:56:28.526Z,7.40
2018-09-11T02:58:58.784Z,6.97
2018-09-11T03:01:29.086Z,7.40
2018-09-11T03:03:59.332Z,7.33
2018-09-11T03:06:29.493Z,7.03
2018-09-11T03:08:59.724Z,7.13
2018-09-11T03:11:29.873Z,7.03
2018-09-11T03:14:00.117Z,7.80
2018-09-11T03:16:30.257Z,7.87
2018-09-11T03:19:00.520Z,8.00
2018-09-11T03:21:30.794Z,7.63
2018-09-11T03:24:01.028Z,7.33
2018-09-11T03:26:31.261Z,8.13
2018-09-11T03:29:01.538Z,8.10
2018-09-11T03:31:31.778Z,7.87
2018-09-11T03:34:02.393Z,7.83
2018-09-11T03:36:32.601Z,8.13
2018-09-11T03:39:03.019Z,8.77
2018-09-11T03:41:33.205Z,8.50
2018-09-11T03:44:03.471Z,7.97
2018-09-11T03:46:33.825Z,9.17
2018-09-11T03:49:04.226Z,9.70
2018-09-11T03:51:33.903Z,9.40
2018-09-11T03:54:04.060Z,9.17
2018-09-11T03:56:34.314Z,9.40
2018-09-11T03:59:04.615Z,8.37
2018-09-11T04:01:34.822Z,8.30
2018-09-11T04:04:05.070Z,7.43
2018-09-11T04:06:35.279Z,6.37
2018-09-11T04:09:08.358Z,6.20
2018-09-11T04:11:38.538Z,6.00
2018-09-11T04:14:08.772Z,5.70
2018-09-11T04:16:39.090Z,5.90
2018-09-11T04:19:09.322Z,5.90
2018-09-11T04:21:39.544Z,6.50
2018-09-11T04:24:09.843Z,5.13
2018-09-11T04:26:40.193Z,5.13
2018-09-11T04:31:36.184Z,5.17
2018-09-11T04:34:06.497Z,4.90
2018-09-11T04:36:36.745Z,5.30
2018-09-11T04:39:08.989Z,5.13
2018-09-11T04:41:39.219Z,4.67
2018-09-11T04:44:09.456Z,4.77
2018-09-11T04:46:39.718Z,4.73
2018-09-11T04:49:09.624Z,5.10
2018-09-11T04:51:39.789Z,4.63
2018-09-11T04:56:34.070Z,5.17
2018-09-11T04:59:04.265Z,4.90
2018-09-11T05:01:34.513Z,5.13
2018-09-11T05:04:04.822Z,4.83
2018-09-11T05:06:35.049Z,5.30
2018-09-11T05:09:07.308Z,5.73
2018-09-11T05:11:37.546Z,5.20
2018-09-11T05:14:07.497Z,5.30
2018-09-11T05:16:37.668Z,5.57
2018-09-11T05:19:07.323Z,5.50
2018-09-11T05:21:37.465Z,6.00
2018-09-11T05:24:07.767Z,6.20
2018-09-11T05:26:38.024Z,6.00
2018-09-11T05:29:08.240Z,5.60
2018-09-11T05:31:38.498Z,6.43
2018-09-11T05:34:08.635Z,6.43
2018-09-11T05:36:38.836Z,6.20
2018-09-11T05:39:09.764Z,6.30
2018-09-11T05:41:39.877Z,6.60
2018-09-11T05:44:10.384Z,6.67
2018-09-11T05:46:40.630Z,6.53
2018-09-11T05:49:10.864Z,6.80
2018-09-11T05:51:41.134Z,6.27
2018-09-11T05:54:11.541Z,6.43
2018-09-11T05:56:41.761Z,7.00
2018-09-11T05:59:11.996Z,6.60
2018-09-11T06:01:42.393Z,6.60
2018-09-11T06:04:12.614Z,6.90
2018-09-11T06:06:42.846Z,6.53
2018-09-11T06:09:14.413Z,7.23
2018-09-11T06:11:44.656Z,6.80
2018-09-11T06:14:14.856Z,6.80
2018-09-11T06:16:45.101Z,7.00
2018-09-11T06:19:15.301Z,6.93
2018-09-11T06:21:45.620Z,6.30
2018-09-11T06:24:15.853Z,7.20
2018-09-11T06:26:46.130Z,6.83
2018-09-11T06:29:16.484Z,6.53
2018-09-11T06:31:46.628Z,6.00
2018-09-11T06:34:16.847Z,6.10
2018-09-11T06:36:47.016Z,6.17
2018-09-11T06:39:17.196Z,6.37
2018-09-11T06:41:53.617Z,6.30
2018-09-11T06:44:23.820Z,6.70
2018-09-11T06:46:53.432Z,6.37
2018-09-11T06:49:23.564Z,6.70
2018-09-11T06:51:53.825Z,6.23
2018-09-11T06:54:24.082Z,6.80
2018-09-11T06:56:54.421Z,6.67
2018-09-11T06:59:24.909Z,7.00
2018-09-11T07:01:55.490Z,7.03
2018-09-11T07:04:25.933Z,5.70
2018-09-11T07:06:56.206Z,6.70
2018-09-11T07:09:26.409Z,6.17
2018-09-11T07:11:56.686Z,5.10
